Mamers, North Carolina
Current Conditions -  °F | °C
As of 3:15 PM on Thursday 30 Oct 2014 (Local Time) from KHRJ Reporting Station
Scattered Clouds Scattered Clouds  
Wind Chill: 69°   Ceiling: Unl
Heat Index: 69°   Visibility: 10mi
Dew Point: 41°   Wind: 6mph
Humidity: 36%   Direction: 40°NE
Pressure: 29.97"   Gusts: NA
Location:  35.42°N, 78.93°W
Report Text: KHRJ 301915Z AUTO 04005KT 10SM SCT050 21/05 A2997 RMK AO2 T02060048
Loading
Personal Weather Stations






























Interactive Weather Map
Tropical Storm Tracking
New forecast layout! Learn more

10-Day Weather Forecast

Advertisements
Track Severe Weather on mobile